This is the latest recevied weather packets stored in our database for station/object KF7OVD-WX. If no packets are shown the sender has not sent any weather packets the latest 10 day(s).
| Time | Temp. | Humidity | Pressure | Rain* | Wind** | Luminosity | Snow |
|---|---|---|---|---|---|---|---|
| 1777688715 | 13.33° C | 34% | 1021.8 hPa | 0 mm | - | - | - |
| 1777685727 | 17.22° C | 28% | 1021.6 hPa | 0 mm | - | - | - |
| 1777684517 | 18.89° C | 23% | 1021.6 hPa | 0 mm | - | - | - |
| 1777682123 | 20° C | 21% | 1021.4 hPa | 0 mm | - | - | - |
| 1777680367 | 21.11° C | 19% | 1021.6 hPa | 0 mm | - | - | - |
| 1777679421 | 21.67° C | 20% | 1021.3 hPa | 0 mm | - | - | - |
| 1777678816 | 21.67° C | 19% | 1021.3 hPa | 0 mm | - | - | - |
| 1777678229 | 21.67° C | 20% | 1021.2 hPa | 0 mm | - | - | - |
| 1777677322 | 22.22° C | 19% | 1021.2 hPa | 0 mm | - | - | - |
| 1777675533 | 22.22° C | 19% | 1021.3 hPa | 0 mm | - | - | - |
| 1777673719 | 23.33° C | 20% | 1021.6 hPa | 0 mm | - | - | - |
| 1777670430 | 23.33° C | 21% | 1022.1 hPa | 0 mm | - | - | - |
| 1777669524 | 21.11° C | 21% | 1022.2 hPa | 0 mm | - | - | - |
| 1777668316 | 23.33° C | 21% | 1022.4 hPa | 0 mm | - | - | - |
| 1777668020 | 22.78° C | 20% | 1022.4 hPa | 0 mm | - | - | - |
| 1777667416 | 22.78° C | 20% | 1022.4 hPa | 0 mm | - | - | - |
| 1777667132 | 22.22° C | 21% | 1022.4 hPa | 0 mm | - | - | - |
| 1777665017 | 22.78° C | 23% | 1022.5 hPa | 0 mm | - | - | - |
| 1777663827 | 21.67° C | 24% | 1022.7 hPa | 0 mm | - | - | - |
| 1777657224 | 19.44° C | 27% | 1023.7 hPa | 0 mm | - | - | - |
| 1777656015 | 19.44° C | 30% | 1023.9 hPa | 0 mm | - | - | - |
| 1777652447 | 16.67° C | 32% | 1023.9 hPa | 0 mm | - | - | - |
| 1777650957 | 16.11° C | 33% | 1023.7 hPa | 0 mm | - | - | - |
| 1777650615 | 15.56° C | 32% | 1023.7 hPa | 0 mm | - | - | - |
| 1777648829 | 13.33° C | 38% | 1023.7 hPa | 0 mm | - | - | - |
* Rain latest hour (hover to see other rain measurements)
** Current wind speed in m/s (hover to see current wind gust speed)